createdAt,value
2022-11-14T00:12:57.236Z,68.1
2022-11-14T00:27:25.967Z,69.3
2022-11-14T00:41:53.425Z,70
2022-11-14T00:56:16.957Z,75
2022-11-14T01:10:44.358Z,76.1
2022-11-14T01:25:12.029Z,77.7
2022-11-14T01:39:41.025Z,77.4
2022-11-14T01:54:10.200Z,76.7
2022-11-14T02:08:39.826Z,76.1
2022-11-14T02:23:10.053Z,76.3
2022-11-14T02:37:37.882Z,77.3
2022-11-14T02:52:08.636Z,76.8
2022-11-14T03:06:36.880Z,77.8
2022-11-14T03:21:04.937Z,79.7
2022-11-14T03:35:33.509Z,80.4
2022-11-14T03:50:01.798Z,82
2022-11-14T04:04:29.765Z,83.5
2022-11-14T04:18:57.567Z,86.7
2022-11-14T04:33:24.988Z,89.6
2022-11-14T04:47:52.967Z,89.7
2022-11-14T05:02:22.318Z,88
2022-11-14T05:16:48.568Z,88.4
2022-11-14T05:31:17.211Z,89.1
2022-11-14T05:45:45.767Z,90.4
2022-11-14T06:00:14.141Z,90.5
2022-11-14T06:14:43.883Z,87.5
2022-11-14T06:29:12.668Z,87.9
2022-11-14T06:43:41.858Z,88.6
2022-11-14T06:58:09.860Z,88.9
2022-11-14T07:12:37.381Z,88.8
2022-11-14T07:27:05.588Z,88.6
2022-11-14T07:41:35.513Z,88.5
2022-11-14T07:56:03.616Z,88.3
2022-11-14T08:10:34.144Z,88.1
2022-11-14T08:25:02.103Z,88.9
2022-11-14T08:39:30.129Z,88.8
2022-11-14T08:53:59.491Z,89.6
2022-11-14T09:08:29.000Z,90.8
2022-11-14T09:22:57.665Z,91.4
2022-11-14T09:37:26.036Z,92.6
2022-11-14T09:51:54.469Z,91.4
2022-11-14T10:06:20.756Z,92
2022-11-14T10:20:49.314Z,91.2
2022-11-14T10:35:18.576Z,89.6
2022-11-14T10:49:47.695Z,89.8
2022-11-14T11:04:17.020Z,89.8
2022-11-14T11:18:50.942Z,89.8
2022-11-14T11:33:19.030Z,87.6
2022-11-14T11:47:45.812Z,87.8
2022-11-14T12:02:14.406Z,89.5
2022-11-14T12:16:40.553Z,89.2
2022-11-14T12:31:09.206Z,89.3
2022-11-14T12:45:37.082Z,89.6
2022-11-14T13:00:07.350Z,89.7
2022-11-14T13:14:33.642Z,89.5
2022-11-14T13:29:01.562Z,90.8
2022-11-14T13:43:30.384Z,93.1
2022-11-14T13:57:57.538Z,94.4
2022-11-14T14:12:24.659Z,95.4
2022-11-14T14:26:54.093Z,95.7
2022-11-14T14:41:23.246Z,95.8
2022-11-14T14:55:50.736Z,96.1
2022-11-14T15:10:19.519Z,96.4
2022-11-14T15:24:48.662Z,97.1
2022-11-14T15:39:15.675Z,97.5
2022-11-14T15:53:49.141Z,98.5
2022-11-14T16:08:14.983Z,99.1
2022-11-14T16:22:42.066Z,99.8
2022-11-14T16:36:57.001Z,100
2022-11-14T16:51:49.935Z,100
2022-11-14T17:06:06.781Z,100
2022-11-14T17:20:35.123Z,100
2022-11-14T17:35:03.838Z,100
2022-11-14T17:49:32.881Z,100
2022-11-14T18:04:06.819Z,99.5
2022-11-14T18:18:33.282Z,97.6
2022-11-14T18:33:01.983Z,94.9
2022-11-14T18:47:31.151Z,92.4
2022-11-14T19:01:57.985Z,92.5
2022-11-14T19:16:27.952Z,92.8
2022-11-14T19:30:55.883Z,94.2
2022-11-14T19:45:26.513Z,96
2022-11-14T19:59:53.567Z,97.8
2022-11-14T20:14:22.549Z,100
2022-11-14T20:28:50.799Z,100
2022-11-14T20:43:18.679Z,100
2022-11-14T20:57:48.124Z,100
2022-11-14T21:12:16.715Z,100
2022-11-14T21:26:46.181Z,100
2022-11-14T21:41:14.900Z,100
2022-11-14T21:55:44.045Z,100
2022-11-14T22:08:41.403Z,100
2022-11-14T22:23:13.677Z,100
2022-11-14T22:37:36.205Z,100
2022-11-14T22:52:03.730Z,100
2022-11-14T23:06:31.553Z,100
2022-11-14T23:20:59.246Z,100
2022-11-14T23:35:26.894Z,100
2022-11-14T23:49:54.907Z,100
